Milford, Utah Weather observations

Data are for observation ending at time listed.
 Day   Time    Ave.   Ave.  Ave.  Vector   Max.   Stn.    Total    Solar   Ave.  
  of    of     Air    Rel.  Wind   Wind    Wind   Baro.  Precip.   Rad.    Soil  
Year   Day     Temp.  Hum.  Speed  Dir.    Gust   Pres.                    Temp. 
2015   (MST)    F      %     mph   deg.    mph     mb.     in.     W/m2     F   
------------------------------------------------------------------------------
 145    1:20   48.5    88    0.7   186      2.4   843.1    0.00       0    62.9
 145    1:30   48.3    89    0.0     0      0.0   843.1    0.00       0    63.2
 145    1:40   48.3    89    0.2   300      1.4   843.1    0.00       0    63.6
 145    1:50   48.2    89    0.3   236      1.2   843.0    0.00       0    63.5
 145    2:00   48.1    89    1.2   270      2.2   843.0    0.00       0    62.5
 145    2:10   47.4    89    0.3   290      1.2   843.1    0.00       0    64.0
 145    2:20   46.9    89    0.0     0      0.0   843.1    0.00       0    63.8
 145    2:30   46.8    89    0.1   238      0.7   843.0    0.00       0    65.6
 145    2:40   46.4    89    0.1   290      1.3   843.1    0.00       0    62.6
 145    2:50   46.1    89    1.1   272      1.8   843.0    0.00       0    64.3
 145    3:00   45.5    89    1.3   290      1.7   843.0    0.00       0    64.4
 145    3:10   45.2    90    0.6   278      1.4   843.0    0.00       0    64.5
 145    3:20   45.0    90    0.1    27      1.3   843.1    0.00       0    62.6
 145    3:30   44.9    90    0.0     0      0.0   843.1    0.00       0    63.3
 145    3:40   45.3    90    0.0   251      0.7   843.0    0.00       0    63.7
 145    3:50   45.7    90    0.4   254      1.8   843.0    0.00       0    64.7
 145    4:00   45.6    90    0.7   234      2.0   843.0    0.00       0    64.4
 145    4:10   45.0    90    1.2   187      2.5   843.0    0.00       0    99999.0
 145    4:20   44.3    90    1.4   190      2.7   843.1    0.00       0    59.4
 145    4:30   43.5    90    1.4   177      2.8   843.0    0.00       0    59.3
 145    4:40   42.5    90    1.0   162      2.6   842.9    0.00       0    59.3
 145    4:50   42.1    91    0.9   196      2.4   842.9    0.00       0    99999.0
 145    5:00   42.1    91    1.0   206      2.1   842.8    0.00       0    99999.0
 145    5:10   42.2    91    1.2   204      2.9   842.8    0.00       1    99999.0
 145    5:20   42.2    91    1.2   194      2.2   842.9    0.00       3    99999.0
 145    5:30   42.6    91    1.7   196      3.3   842.8    0.00       5    99999.0
 145    5:40   43.2    91    2.1   194      3.6   842.8    0.00      19    59.1
 145    5:50   44.0    91    2.3   190      5.0   842.9    0.00      49    59.2
 145    6:00   45.0    91    2.7   188      6.0   843.1    0.00      76    58.9
 145    6:10   46.0    91    2.6   190      4.7   843.4    0.00     103    58.8
 145    6:20   46.5    90    3.1   189      5.6   843.5    0.00     132    58.8
 145    6:30   47.2    90    2.5   193      5.6   843.6    0.00     157    58.7
 145    6:40   48.8    90    2.0   190      6.8   843.8    0.00     182    58.7
 145    6:50   50.1    88    2.5   194      5.5   844.0    0.00     207    58.7
 145    7:00   51.1    86    2.5   190      4.8   844.3    0.00     234    58.7
 145    7:10   51.8    82    3.3   190      6.4   844.5    0.00     261    99999.0
 145    7:20   52.3    81    3.2   182      5.3   844.5    0.00     288    58.6
 145    7:30   53.0    79    3.5   185      6.8   844.7    0.00     317    58.7
 145    7:40   53.6    78    3.7   183      8.6   844.9    0.00     345    58.5
 145    7:50   54.7    75    2.9   195      6.7   845.1    0.00     373    58.5
 145    8:00   55.6    73    3.0   198      6.8   845.2    0.00     401    58.5
 145    8:10   56.0    71    3.2   194      6.2   845.3    0.00     427    58.5
 145    8:20   56.0    69    4.8   178      9.8   845.5    0.00     454    58.5
 145    8:30   56.4    66    4.7   180      9.1   845.7    0.00     482    58.3
 145    8:40   56.5    66    5.5   177     11.3   845.7    0.00     508    58.5
 145    8:50   57.2    66    5.1   181     10.5   845.8    0.00     534    58.5
 145    9:00   57.8    64    4.6   180     10.7   845.8    0.00     560    58.7
 145    9:10   58.0    63    5.5   175     10.7   845.8    0.00     584    58.4
 145    9:20   58.5    63    5.5   170      9.9   845.9    0.00     608    58.4
 145    9:30   59.2    64    4.8   178     10.2   846.0    0.00     631    58.5
 145    9:40   59.5    62    5.9   171      9.7   846.1    0.00     654    58.5
 145    9:50   59.5    62    6.1   171     12.6   846.1    0.00     676    99999.0
 145   10:00   60.2    62    5.8   172     12.2   846.2    0.00     696    58.6
 145   10:10   60.6    62    4.8   174     10.2   846.3    0.00     715    60.0
 145   10:20   61.1    60    5.9   165      8.9   846.3    0.00     734    60.4
 145   10:30   62.5    58    4.0   185      8.2   846.4    0.00     752    64.8
 145   10:40   62.2    55    4.8   170     12.2   846.5    0.00     783    68.3
 145   10:50   62.4    54    4.7   175     11.1   846.6    0.00     598    68.1
 145   11:00   63.5    54    4.2   177      8.7   846.5    0.00     864    99999.0
 145   11:10   65.1    52    2.9   191      6.8   846.5    0.00     906    58.5
 145   11:20   64.6    47    2.3   175      7.7   846.6    0.00     504    99999.0
 145   11:30   65.0    42    2.7   148      7.5   846.7    0.00     862    58.2
 145   11:40   65.1    42    3.2   148      9.5   846.8    0.00     708    58.6
 145   11:50   64.6    43    2.2   161      5.6   846.9    0.00     361    58.5
 145   12:00   64.9    42    2.9   133      7.5   846.8    0.00     324    99999.0
 145   12:10   64.2    41    2.3   147      6.6   846.8    0.00     279    58.4
 145   12:20   65.8    40    2.1   141      5.4   846.8    0.00     853    58.7
 145   12:30   66.7    39    3.4   167     10.1   846.8    0.00     792    58.6
 145   12:40   64.9    40    4.0   165      7.0   846.9    0.00     363    58.5
 145   12:50   66.5    40    4.2   176      8.3   846.8    0.00     977    99999.0
 145   13:00   67.0    38    4.3   179      8.9   846.8    0.00     915    59.1
 145   13:10   66.5    35    5.1   164      9.6   846.9    0.00     830    63.4
 145   13:20   66.7    36    3.4   165      7.9   846.9    0.00     843    99999.0
 145   13:30   67.1    35    2.9   151      5.8   846.8    0.00     846    99999.0
 145   13:40   67.9    34    3.2   154      7.2   846.8    0.00     837    99999.0
 145   13:50   68.9    34    3.5   144      8.4   846.7    0.00     827    59.2
 145   14:00   68.7    35    4.2   147      8.3   846.7    0.00     814    59.3
 145   14:10   68.5    34    4.4   158      8.3   846.6    0.00     813    99999.0
 145   14:20   69.2    35    3.6   158      9.1   846.6    0.00     789    99999.0
 145   14:30   70.5    34    2.5   204      7.3   846.6    0.00     773    59.5
 145   14:40   69.9    33    2.7   161      6.8   846.6    0.00     799    59.9
 145   14:50   69.6    33    4.2   164      7.7   846.6    0.00     768    99999.0
 145   15:00   69.7    32    2.4   136      9.1   846.5    0.00     690    59.6
 145   15:10   70.2    32    3.6   146      7.9   846.4    0.00     713    59.7
 145   15:20   70.6    32    3.2   182      8.6   846.2    0.00     682    59.8
 145   15:30   70.7    32    3.9   172      9.0   846.2    0.00     671    60.1
 145   15:40   70.0    32    2.5   167      7.6   846.2    0.00     569    99999.0
 145   15:50   70.0    32    4.2   163      8.3   846.1    0.00     414    99999.0
 145   16:00   68.8    34    4.3   176      9.1   846.0    0.00     358    60.0
 145   16:10   69.8    34    4.7   175     12.0   845.8    0.00     504    60.4
 145   16:20   69.5    33    3.9   185      7.2   845.7    0.00     473    60.4
 145   16:30   69.7    35    6.3   171     12.7   845.6    0.00     499    99999.0
 145   16:40   69.3    36    6.0   178     14.0   845.5    0.00     477    99999.0
 145   16:50   69.0    36    3.9   191      7.5   845.4    0.00     273    99999.0
 145   17:00   68.0    36    3.1   189      8.3   845.3    0.00      76    60.5
 145   17:10   67.6    35    1.8   205      4.6   845.2    0.00      66    60.6
 145   17:20   68.3    34    2.1   200      5.8   845.0    0.00     151    99999.0
 145   17:30   68.7    33    3.3   182      6.9   844.9    0.00     120    99999.0
 145   17:40   68.2    33    2.9   189      6.1   844.8    0.00      67    99999.0
 145   17:50   68.4    33    1.8   209      5.1   844.7    0.00      71    99999.0
 145   18:00   67.9    32    2.8   179      5.3   844.7    0.00      41    61.3
 145   18:10   67.4    33    2.9   183      6.6   844.6    0.00      42    61.2
 145   18:20   67.2    35    2.2   188      5.0   844.5    0.00      63    99999.0
 145   18:30   66.9    37    0.9   184      2.3   844.4    0.00      50    99999.0
 145   18:40   66.2    40    1.4   192      3.2   844.4    0.00      34    61.4
 145   18:50   65.6    43    1.2   198      3.3   844.4    0.00      34    99999.0
 145   19:00   65.4    42    0.8   199      3.3   844.4    0.00      40    99999.0
 145   19:10   65.4    41    0.3   231      2.0   844.3    0.00      27    99999.0
 145   19:20   64.9    43    0.1   196      1.0   844.3    0.00      18    99999.0
 145   19:30   64.0    45    0.2   191      1.8   844.3    0.00       7    61.9
 145   19:40   63.3    46    0.0     0      0.0   844.3    0.00       5    99999.0
 145   19:50   62.0    53    1.1   169      2.9   844.2    0.00       3    99999.0
 145   20:00   60.6    59    0.7   214      2.2   844.1    0.00       0    99999.0
 145   20:10   59.6    60    0.9   219      3.1   844.0    0.00       0    99999.0
 145   20:20   59.5    60    1.0   233      2.0   843.9    0.00       0    99999.0
 145   20:30   59.3    60    1.4   212      2.6   843.9    0.00       0    62.0
 145   20:40   59.0    60    1.1   213      2.6   844.0    0.00       0    62.1
 145   20:50   59.2    60    1.5   190      2.7   844.1    0.00       0    62.2
 145   21:00   58.9    60    1.9   199      4.1   844.2    0.00       0    62.3
 145   21:10   58.7    61    2.3   198      4.4   844.4    0.00       0    99999.0
 145   21:20   58.4    62    1.3   221      3.1   844.5    0.00       0    99999.0
 145   21:30   58.4    62    1.5   208      3.2   844.7    0.00       0    62.3
 145   21:40   58.7    63    2.5   189      5.5   844.8    0.00       0    99999.0
 145   21:50   59.6    61    2.0   195      3.8   844.9    0.00       0    62.5
 145   22:00   60.2    59    3.5   178      6.7   844.9    0.00       0    99999.0
 145   22:10   60.1    60    4.4   171      9.0   844.9    0.00       0    99999.0
 145   22:20   59.8    61    5.6   172     10.4   844.9    0.00       0    62.5
 145   22:30   59.5    62    5.5   179      9.9   844.9    0.00       0    99999.0
 145   22:40   59.2    64    4.9   179      9.6   844.9    0.00       0    99999.0
 145   22:50   58.3    66    3.6   179      9.1   845.0    0.00       0    99999.0
 145   23:00   57.7    69    2.7   183      4.6   845.0    0.00       0    99999.0
 145   23:10   57.2    71    2.3   195      4.7   845.0    0.00       0    66.1
 145   23:20   57.3    72    1.3   349      6.5   845.3    0.00       0    99999.0
 145   23:30   58.0    67    4.6    13     13.9   845.5    0.00       0    99999.0
 145   23:40   57.5    67    5.0    22     10.2   845.6    0.00       0    99999.0
 145   23:50   57.0    69    5.7    28      9.5   845.6    0.00       0    99999.0
 146    0:00   56.4    72    6.7    29     11.2   845.8    0.00       0    62.4
 146    0:10   55.5    76    3.7    16      7.4   845.9    0.00       0    62.6
 146    0:20   55.4    77    1.9     6      3.7   845.8    0.00       0    99999.0
 146    0:30   55.3    76    1.6   320      4.8   845.8    0.00       0    99999.0
 146    0:40   55.1    77    0.7   346      2.2   845.7    0.00       0    99999.0
 146    0:50   54.8    79    1.8     4      4.7   845.5    0.00       0    99999.0
 146    1:00   54.6    80    1.3   352      3.9   845.3    0.00       0    99999.0
 146    1:10   54.8    79    1.3   312      4.7   845.4    0.00       0    99999.0

Return to Milford, Utah graphs page.


Western Regional Climate Center,wrcc@dri.edu